Skip Navigation LinksHome page > Weather > Current weather Skip Navigation Links

Current Weather

La Guardia, New York

For information only: do not use for flight planning or navigation.
Latest weather
Observation time Saturday, October 19, 2019 5:51 AM EDT
Local time Saturday, October 19, 2019 6:15 AM EDT
Flight conditions Visual Meteorological Conditions
Winds
Wind direction North-Northwest (330°)
Wind speed 6 mph
Visibility 10 mi.
Sky condition
Ceiling unlimited
Sky clear
Temperature 47°F
Dewpoint 35°F
Altimeter 30.03 in.Hg
Derived measurements
Relative humidity 63%
Wind chill 44°F
Density altitude -803 ft.
Sea-level pressure 30.03 in.Hg
Remarks
Automated weather observing station with precipitation discriminator.
METAR KLGA 190951Z 33005KT 10SM CLR 08/02 A3003 RMK AO2 SLP169 T00830017

Settings

Location code

InnerDrive.Weather 4.0.6770.0 Release CLR 4.0.30319.42000
Copyright ©2018 Inner Drive Technology. All rights reserved. Portions Copyright ©1986-2018 David Braverman.

Find weather

Site navigation


Skip Navigation Links

Place info

Page info

PayPal - The safer, easier way to pay online!

Return home.

Copyright ©2019 Inner Drive Technology. Purveyors of fine, hand-crafted computer software. Page printed 2019-10-19T10:15:50 UTC.